sensor_id;sensor_type;location;lat;lon;timestamp;P1;P2;P0
66336;PMS1003;53139;45.576;5.304;2023-06-26T00:00:45;10.50;9.75;8.00
66336;PMS1003;53139;45.576;5.304;2023-06-26T00:03:47;13.00;13.00;9.75
66336;PMS1003;53139;45.576;5.304;2023-06-26T00:06:47;12.50;12.25;9.00
66336;PMS1003;53139;45.576;5.304;2023-06-26T00:09:47;13.25;11.50;8.75
66336;PMS1003;53139;45.576;5.304;2023-06-26T00:12:48;12.00;11.50;10.00
66336;PMS1003;53139;45.576;5.304;2023-06-26T00:15:48;11.75;10.50;6.25
66336;PMS1003;53139;45.576;5.304;2023-06-26T00:18:55;12.00;11.25;7.25
66336;PMS1003;53139;45.576;5.304;2023-06-26T00:27:44;11.75;11.50;8.75
66336;PMS1003;53139;45.576;5.304;2023-06-26T00:32:06;13.00;12.00;9.75
66336;PMS1003;53139;45.576;5.304;2023-06-26T00:36:13;12.00;10.50;7.00
66336;PMS1003;53139;45.576;5.304;2023-06-26T00:40:24;16.75;12.00;7.50
66336;PMS1003;53139;45.576;5.304;2023-06-26T00:44:41;10.75;10.50;9.00
66336;PMS1003;53139;45.576;5.304;2023-06-26T00:49:03;14.25;12.75;7.25
66336;PMS1003;53139;45.576;5.304;2023-06-26T00:53:25;16.75;12.00;9.50
66336;PMS1003;53139;45.576;5.304;2023-06-26T00:57:24;12.50;10.75;7.75
66336;PMS1003;53139;45.576;5.304;2023-06-26T01:13:54;12.75;12.25;9.00
66336;PMS1003;53139;45.576;5.304;2023-06-26T01:18:08;15.50;11.25;8.50
66336;PMS1003;53139;45.576;5.304;2023-06-26T01:26:56;15.25;13.25;10.50
66336;PMS1003;53139;45.576;5.304;2023-06-26T01:31:15;16.25;13.00;9.75
66336;PMS1003;53139;45.576;5.304;2023-06-26T01:35:26;14.00;11.50;9.50
66336;PMS1003;53139;45.576;5.304;2023-06-26T01:39:37;15.50;13.00;8.75
66336;PMS1003;53139;45.576;5.304;2023-06-26T01:44:11;15.75;13.25;10.00
66336;PMS1003;53139;45.576;5.304;2023-06-26T02:00:37;18.00;15.50;11.00
66336;PMS1003;53139;45.576;5.304;2023-06-26T02:09:01;17.75;15.75;11.25
66336;PMS1003;53139;45.576;5.304;2023-06-26T02:33:41;13.00;13.00;9.50
66336;PMS1003;53139;45.576;5.304;2023-06-26T02:42:01;20.00;14.00;11.00
66336;PMS1003;53139;45.576;5.304;2023-06-26T02:50:31;19.25;17.50;12.00
66336;PMS1003;53139;45.576;5.304;2023-06-26T02:54:46;14.75;12.75;9.00
66336;PMS1003;53139;45.576;5.304;2023-06-26T02:58:59;16.50;14.25;9.25
66336;PMS1003;53139;45.576;5.304;2023-06-26T03:03:11;13.75;13.75;10.25
66336;PMS1003;53139;45.576;5.304;2023-06-26T03:07:18;14.25;14.00;10.75
66336;PMS1003;53139;45.576;5.304;2023-06-26T03:19:30;19.00;15.75;11.00
66336;PMS1003;53139;45.576;5.304;2023-06-26T03:23:32;19.00;17.00;12.00
66336;PMS1003;53139;45.576;5.304;2023-06-26T03:27:34;18.75;16.25;12.25
66336;PMS1003;53139;45.576;5.304;2023-06-26T03:31:51;18.75;17.00;12.25
66336;PMS1003;53139;45.576;5.304;2023-06-26T03:48:18;17.25;17.25;12.00
66336;PMS1003;53139;45.576;5.304;2023-06-26T03:52:34;19.50;19.50;13.25
66336;PMS1003;53139;45.576;5.304;2023-06-26T03:56:49;18.50;15.25;10.25
66336;PMS1003;53139;45.576;5.304;2023-06-26T04:01:07;16.75;14.00;10.25
66336;PMS1003;53139;45.576;5.304;2023-06-26T04:05:01;18.50;14.25;10.75
66336;PMS1003;53139;45.576;5.304;2023-06-26T04:09:25;13.25;12.00;10.00
66336;PMS1003;53139;45.576;5.304;2023-06-26T04:13:50;15.00;14.00;10.00
66336;PMS1003;53139;45.576;5.304;2023-06-26T04:18:06;16.50;15.50;12.00
66336;PMS1003;53139;45.576;5.304;2023-06-26T04:21:52;14.25;13.50;10.50
66336;PMS1003;53139;45.576;5.304;2023-06-26T04:24:52;15.00;12.00;8.50
66336;PMS1003;53139;45.576;5.304;2023-06-26T04:27:52;14.50;11.25;7.75
66336;PMS1003;53139;45.576;5.304;2023-06-26T04:30:53;18.50;16.25;11.75
66336;PMS1003;53139;45.576;5.304;2023-06-26T04:33:53;18.75;14.50;11.50
66336;PMS1003;53139;45.576;5.304;2023-06-26T04:36:54;16.00;13.00;8.75
66336;PMS1003;53139;45.576;5.304;2023-06-26T04:39:55;16.50;16.25;11.25
66336;PMS1003;53139;45.576;5.304;2023-06-26T04:42:55;18.25;16.50;12.25
66336;PMS1003;53139;45.576;5.304;2023-06-26T04:45:56;18.00;17.75;11.75
66336;PMS1003;53139;45.576;5.304;2023-06-26T04:48:56;19.50;16.50;11.00
66336;PMS1003;53139;45.576;5.304;2023-06-26T04:51:58;21.25;17.00;11.75
66336;PMS1003;53139;45.576;5.304;2023-06-26T04:55:00;20.50;15.75;11.00
66336;PMS1003;53139;45.576;5.304;2023-06-26T04:58:00;19.00;14.25;10.75
66336;PMS1003;53139;45.576;5.304;2023-06-26T05:01:00;15.75;14.75;9.75
66336;PMS1003;53139;45.576;5.304;2023-06-26T05:04:01;17.25;17.00;12.50
66336;PMS1003;53139;45.576;5.304;2023-06-26T05:07:02;21.00;18.50;12.75
66336;PMS1003;53139;45.576;5.304;2023-06-26T05:10:03;19.00;13.50;11.00
66336;PMS1003;53139;45.576;5.304;2023-06-26T05:13:03;16.00;14.75;11.50
66336;PMS1003;53139;45.576;5.304;2023-06-26T05:16:05;19.25;16.50;12.25
66336;PMS1003;53139;45.576;5.304;2023-06-26T05:19:08;23.25;19.25;12.50
66336;PMS1003;53139;45.576;5.304;2023-06-26T05:22:08;22.50;19.00;13.50
66336;PMS1003;53139;45.576;5.304;2023-06-26T05:25:09;19.00;17.25;13.00
66336;PMS1003;53139;45.576;5.304;2023-06-26T05:28:11;19.75;18.75;12.50
66336;PMS1003;53139;45.576;5.304;2023-06-26T05:31:12;22.25;17.50;12.75
66336;PMS1003;53139;45.576;5.304;2023-06-26T05:34:12;26.25;23.25;15.50
66336;PMS1003;53139;45.576;5.304;2023-06-26T05:37:14;21.25;17.25;12.25
66336;PMS1003;53139;45.576;5.304;2023-06-26T05:40:20;17.50;14.75;10.50
66336;PMS1003;53139;45.576;5.304;2023-06-26T05:43:21;19.25;18.00;13.00
66336;PMS1003;53139;45.576;5.304;2023-06-26T05:46:21;15.00;13.50;10.75
66336;PMS1003;53139;45.576;5.304;2023-06-26T05:49:22;17.50;15.75;11.00
66336;PMS1003;53139;45.576;5.304;2023-06-26T05:52:23;24.25;19.25;12.00
66336;PMS1003;53139;45.576;5.304;2023-06-26T05:55:23;18.75;15.75;10.25
66336;PMS1003;53139;45.576;5.304;2023-06-26T05:58:25;19.00;16.25;11.25
66336;PMS1003;53139;45.576;5.304;2023-06-26T06:01:27;22.00;17.00;11.25
66336;PMS1003;53139;45.576;5.304;2023-06-26T06:04:28;19.50;17.75;11.50
66336;PMS1003;53139;45.576;5.304;2023-06-26T06:07:28;18.00;16.25;11.25
66336;PMS1003;53139;45.576;5.304;2023-06-26T06:10:29;14.50;14.50;11.50
66336;PMS1003;53139;45.576;5.304;2023-06-26T06:13:29;19.75;15.50;11.50
66336;PMS1003;53139;45.576;5.304;2023-06-26T06:16:30;15.00;14.25;11.50
66336;PMS1003;53139;45.576;5.304;2023-06-26T06:19:30;15.75;14.50;11.50
66336;PMS1003;53139;45.576;5.304;2023-06-26T06:22:30;19.50;16.50;12.00
66336;PMS1003;53139;45.576;5.304;2023-06-26T06:25:31;20.00;15.25;11.25
66336;PMS1003;53139;45.576;5.304;2023-06-26T06:28:31;16.25;14.50;11.75
66336;PMS1003;53139;45.576;5.304;2023-06-26T06:31:32;19.50;15.00;11.00
66336;PMS1003;53139;45.576;5.304;2023-06-26T06:34:32;15.00;14.75;12.25
66336;PMS1003;53139;45.576;5.304;2023-06-26T06:37:33;15.00;12.25;10.25
66336;PMS1003;53139;45.576;5.304;2023-06-26T06:40:33;16.75;14.75;11.25
66336;PMS1003;53139;45.576;5.304;2023-06-26T06:43:34;14.75;14.50;11.75
66336;PMS1003;53139;45.576;5.304;2023-06-26T06:46:34;15.50;12.25;9.00
66336;PMS1003;53139;45.576;5.304;2023-06-26T06:49:34;15.00;13.00;9.25
66336;PMS1003;53139;45.576;5.304;2023-06-26T06:52:38;14.75;14.00;10.50
66336;PMS1003;53139;45.576;5.304;2023-06-26T06:55:40;15.25;13.25;10.25
66336;PMS1003;53139;45.576;5.304;2023-06-26T06:58:40;14.00;13.50;9.00
66336;PMS1003;53139;45.576;5.304;2023-06-26T07:01:42;15.50;12.50;9.50
66336;PMS1003;53139;45.576;5.304;2023-06-26T07:04:42;15.75;15.00;10.25
66336;PMS1003;53139;45.576;5.304;2023-06-26T07:07:43;10.00;8.00;7.00
66336;PMS1003;53139;45.576;5.304;2023-06-26T07:10:44;14.00;11.75;8.75
66336;PMS1003;53139;45.576;5.304;2023-06-26T07:13:44;15.00;13.50;10.00
66336;PMS1003;53139;45.576;5.304;2023-06-26T07:16:44;16.25;15.25;11.25
66336;PMS1003;53139;45.576;5.304;2023-06-26T07:19:45;16.25;14.25;10.25
66336;PMS1003;53139;45.576;5.304;2023-06-26T07:22:46;13.00;11.25;9.50
66336;PMS1003;53139;45.576;5.304;2023-06-26T07:25:47;9.25;9.25;6.50
66336;PMS1003;53139;45.576;5.304;2023-06-26T07:28:47;12.25;11.25;8.50
66336;PMS1003;53139;45.576;5.304;2023-06-26T07:31:48;9.25;8.00;6.00
66336;PMS1003;53139;45.576;5.304;2023-06-26T07:34:49;13.75;11.25;9.00
66336;PMS1003;53139;45.576;5.304;2023-06-26T07:37:49;11.25;8.00;7.00
66336;PMS1003;53139;45.576;5.304;2023-06-26T07:40:50;12.50;11.50;8.00
66336;PMS1003;53139;45.576;5.304;2023-06-26T07:43:50;9.00;7.50;6.00
66336;PMS1003;53139;45.576;5.304;2023-06-26T07:46:50;10.50;10.00;8.00
66336;PMS1003;53139;45.576;5.304;2023-06-26T07:49:51;7.00;7.00;6.25
66336;PMS1003;53139;45.576;5.304;2023-06-26T07:52:51;14.25;13.50;9.25
66336;PMS1003;53139;45.576;5.304;2023-06-26T07:55:53;12.00;11.00;9.00
66336;PMS1003;53139;45.576;5.304;2023-06-26T07:58:53;14.25;13.50;10.00
66336;PMS1003;53139;45.576;5.304;2023-06-26T08:01:55;10.75;10.75;8.25
66336;PMS1003;53139;45.576;5.304;2023-06-26T08:04:56;10.00;9.25;7.50
66336;PMS1003;53139;45.576;5.304;2023-06-26T08:07:56;11.25;11.25;9.00
66336;PMS1003;53139;45.576;5.304;2023-06-26T08:10:57;13.00;12.00;8.50
66336;PMS1003;53139;45.576;5.304;2023-06-26T08:13:57;11.50;11.00;8.00
66336;PMS1003;53139;45.576;5.304;2023-06-26T08:16:58;11.50;11.50;9.25
66336;PMS1003;53139;45.576;5.304;2023-06-26T08:19:59;11.75;11.75;8.75
66336;PMS1003;53139;45.576;5.304;2023-06-26T08:23:00;12.00;9.75;7.50
66336;PMS1003;53139;45.576;5.304;2023-06-26T08:26:00;13.00;12.50;9.75
66336;PMS1003;53139;45.576;5.304;2023-06-26T08:29:01;12.75;10.50;8.00
66336;PMS1003;53139;45.576;5.304;2023-06-26T08:32:07;9.75;8.50;6.00
66336;PMS1003;53139;45.576;5.304;2023-06-26T08:35:08;13.50;12.00;9.25
66336;PMS1003;53139;45.576;5.304;2023-06-26T08:38:10;10.00;9.25;8.00
66336;PMS1003;53139;45.576;5.304;2023-06-26T08:41:10;13.25;13.00;10.50
66336;PMS1003;53139;45.576;5.304;2023-06-26T08:44:11;12.00;11.50;9.25
66336;PMS1003;53139;45.576;5.304;2023-06-26T08:47:11;11.50;10.25;8.00
66336;PMS1003;53139;45.576;5.304;2023-06-26T08:50:14;11.25;11.00;8.00
66336;PMS1003;53139;45.576;5.304;2023-06-26T08:53:21;11.75;10.00;8.00
66336;PMS1003;53139;45.576;5.304;2023-06-26T08:56:35;14.25;11.50;8.25
66336;PMS1003;53139;45.576;5.304;2023-06-26T08:59:37;9.25;9.25;7.50
66336;PMS1003;53139;45.576;5.304;2023-06-26T09:02:38;7.75;6.50;5.25
66336;PMS1003;53139;45.576;5.304;2023-06-26T09:05:39;9.00;8.00;8.00
66336;PMS1003;53139;45.576;5.304;2023-06-26T09:08:40;9.25;8.75;6.50
66336;PMS1003;53139;45.576;5.304;2023-06-26T09:11:40;11.25;10.50;8.25
66336;PMS1003;53139;45.576;5.304;2023-06-26T09:14:41;10.50;10.50;8.50
66336;PMS1003;53139;45.576;5.304;2023-06-26T09:17:42;10.75;8.50;7.00
66336;PMS1003;53139;45.576;5.304;2023-06-26T09:20:42;13.00;10.00;8.25
66336;PMS1003;53139;45.576;5.304;2023-06-26T09:23:43;10.00;9.25;6.75
66336;PMS1003;53139;45.576;5.304;2023-06-26T09:26:43;8.50;7.75;6.25
66336;PMS1003;53139;45.576;5.304;2023-06-26T09:29:48;9.00;8.75;6.00
66336;PMS1003;53139;45.576;5.304;2023-06-26T09:32:48;9.00;9.00;7.00
66336;PMS1003;53139;45.576;5.304;2023-06-26T09:35:54;10.75;9.00;7.00
66336;PMS1003;53139;45.576;5.304;2023-06-26T09:38:54;9.25;8.50;6.75
66336;PMS1003;53139;45.576;5.304;2023-06-26T09:41:55;9.00;6.75;5.75
66336;PMS1003;53139;45.576;5.304;2023-06-26T09:44:56;9.00;9.00;7.00
66336;PMS1003;53139;45.576;5.304;2023-06-26T09:48:00;9.00;9.00;7.00
66336;PMS1003;53139;45.576;5.304;2023-06-26T09:51:04;9.50;9.00;7.25
66336;PMS1003;53139;45.576;5.304;2023-06-26T09:54:05;7.50;6.75;5.50
66336;PMS1003;53139;45.576;5.304;2023-06-26T09:57:09;8.75;8.75;7.25
66336;PMS1003;53139;45.576;5.304;2023-06-26T10:00:11;9.50;9.50;7.25
66336;PMS1003;53139;45.576;5.304;2023-06-26T10:03:14;8.25;8.00;6.00
66336;PMS1003;53139;45.576;5.304;2023-06-26T10:06:15;8.25;8.25;6.00
66336;PMS1003;53139;45.576;5.304;2023-06-26T10:09:19;9.00;8.75;6.75
66336;PMS1003;53139;45.576;5.304;2023-06-26T10:12:28;8.25;7.25;6.00
66336;PMS1003;53139;45.576;5.304;2023-06-26T10:15:30;9.50;8.50;7.00
66336;PMS1003;53139;45.576;5.304;2023-06-26T10:18:31;8.50;8.50;6.75
66336;PMS1003;53139;45.576;5.304;2023-06-26T10:21:35;7.75;7.75;6.50
66336;PMS1003;53139;45.576;5.304;2023-06-26T10:24:41;12.50;10.00;6.25
66336;PMS1003;53139;45.576;5.304;2023-06-26T10:27:42;9.00;9.00;7.00
66336;PMS1003;53139;45.576;5.304;2023-06-26T10:30:48;10.00;9.00;7.00
66336;PMS1003;53139;45.576;5.304;2023-06-26T10:33:51;11.00;9.25;7.00
66336;PMS1003;53139;45.576;5.304;2023-06-26T10:37:01;8.00;8.00;6.75
66336;PMS1003;53139;45.576;5.304;2023-06-26T10:40:04;10.00;10.00;7.75
66336;PMS1003;53139;45.576;5.304;2023-06-26T10:43:05;8.75;8.50;7.00
66336;PMS1003;53139;45.576;5.304;2023-06-26T10:46:09;11.75;10.50;7.50
66336;PMS1003;53139;45.576;5.304;2023-06-26T10:49:10;8.75;8.00;6.75
66336;PMS1003;53139;45.576;5.304;2023-06-26T10:52:12;12.00;9.00;7.50
66336;PMS1003;53139;45.576;5.304;2023-06-26T10:55:13;8.75;8.75;7.00
66336;PMS1003;53139;45.576;5.304;2023-06-26T11:01:40;12.50;9.50;7.50
66336;PMS1003;53139;45.576;5.304;2023-06-26T11:08:06;10.50;10.50;8.50
66336;PMS1003;53139;45.576;5.304;2023-06-26T11:11:08;8.50;7.25;6.00
66336;PMS1003;53139;45.576;5.304;2023-06-26T11:14:08;9.50;8.50;6.75
66336;PMS1003;53139;45.576;5.304;2023-06-26T11:17:08;9.00;9.00;7.00
66336;PMS1003;53139;45.576;5.304;2023-06-26T11:20:12;10.75;10.00;7.75
66336;PMS1003;53139;45.576;5.304;2023-06-26T11:23:13;11.50;9.50;6.25
66336;PMS1003;53139;45.576;5.304;2023-06-26T11:26:22;7.25;7.25;6.00
66336;PMS1003;53139;45.576;5.304;2023-06-26T11:29:23;9.75;7.75;6.25
66336;PMS1003;53139;45.576;5.304;2023-06-26T11:32:25;10.75;8.75;7.00
66336;PMS1003;53139;45.576;5.304;2023-06-26T11:35:27;8.75;7.75;5.75
66336;PMS1003;53139;45.576;5.304;2023-06-26T11:38:36;10.25;8.00;6.00
66336;PMS1003;53139;45.576;5.304;2023-06-26T11:41:38;8.00;7.00;6.75
66336;PMS1003;53139;45.576;5.304;2023-06-26T11:44:41;9.00;9.00;7.00
66336;PMS1003;53139;45.576;5.304;2023-06-26T11:47:42;8.00;8.00;7.00
66336;PMS1003;53139;45.576;5.304;2023-06-26T11:50:44;14.00;11.25;9.00
66336;PMS1003;53139;45.576;5.304;2023-06-26T11:53:45;11.25;10.50;7.00
66336;PMS1003;53139;45.576;5.304;2023-06-26T11:56:54;4.50;3.50;1.50
66336;PMS1003;53139;45.576;5.304;2023-06-26T11:59:57;8.75;8.75;6.25
66336;PMS1003;53139;45.576;5.304;2023-06-26T12:02:58;9.25;9.25;7.00
66336;PMS1003;53139;45.576;5.304;2023-06-26T12:05:58;10.75;9.75;7.50
66336;PMS1003;53139;45.576;5.304;2023-06-26T12:09:01;10.25;10.00;7.00
66336;PMS1003;53139;45.576;5.304;2023-06-26T12:12:05;13.75;10.25;7.50
66336;PMS1003;53139;45.576;5.304;2023-06-26T12:15:06;11.00;9.50;8.25
66336;PMS1003;53139;45.576;5.304;2023-06-26T12:18:08;12.00;10.25;8.50
66336;PMS1003;53139;45.576;5.304;2023-06-26T12:21:27;8.50;8.00;7.25
66336;PMS1003;53139;45.576;5.304;2023-06-26T12:24:35;9.25;9.25;8.25
66336;PMS1003;53139;45.576;5.304;2023-06-26T12:27:38;7.75;6.50;6.00
66336;PMS1003;53139;45.576;5.304;2023-06-26T12:30:39;9.00;9.00;8.00
66336;PMS1003;53139;45.576;5.304;2023-06-26T12:33:39;14.00;10.25;8.25
66336;PMS1003;53139;45.576;5.304;2023-06-26T12:36:40;12.50;11.25;8.75
66336;PMS1003;53139;45.576;5.304;2023-06-26T12:39:51;11.50;11.50;9.00
66336;PMS1003;53139;45.576;5.304;2023-06-26T12:42:53;11.50;10.25;7.75
66336;PMS1003;53139;45.576;5.304;2023-06-26T12:45:55;10.25;10.25;9.00
66336;PMS1003;53139;45.576;5.304;2023-06-26T12:48:56;10.25;8.75;6.50
66336;PMS1003;53139;45.576;5.304;2023-06-26T12:51:58;11.25;10.00;7.50
66336;PMS1003;53139;45.576;5.304;2023-06-26T12:55:00;12.50;12.00;8.25
66336;PMS1003;53139;45.576;5.304;2023-06-26T12:58:00;9.25;9.25;7.50
66336;PMS1003;53139;45.576;5.304;2023-06-26T13:01:04;9.50;8.00;6.00
66336;PMS1003;53139;45.576;5.304;2023-06-26T13:04:10;10.00;10.00;7.25
66336;PMS1003;53139;45.576;5.304;2023-06-26T13:07:11;11.25;9.50;8.00
66336;PMS1003;53139;45.576;5.304;2023-06-26T13:10:12;10.25;8.25;7.00
66336;PMS1003;53139;45.576;5.304;2023-06-26T13:13:13;8.00;8.00;6.75
66336;PMS1003;53139;45.576;5.304;2023-06-26T13:16:13;8.50;8.50;7.75
66336;PMS1003;53139;45.576;5.304;2023-06-26T13:19:13;10.00;9.50;8.00
66336;PMS1003;53139;45.576;5.304;2023-06-26T13:22:14;10.25;9.75;7.25
66336;PMS1003;53139;45.576;5.304;2023-06-26T13:25:14;10.50;10.00;8.00
66336;PMS1003;53139;45.576;5.304;2023-06-26T13:28:15;9.25;9.25;6.75
66336;PMS1003;53139;45.576;5.304;2023-06-26T13:31:15;9.75;9.25;8.00
66336;PMS1003;53139;45.576;5.304;2023-06-26T13:34:19;9.75;8.50;6.75
66336;PMS1003;53139;45.576;5.304;2023-06-26T13:37:22;8.50;8.50;6.50
66336;PMS1003;53139;45.576;5.304;2023-06-26T13:40:22;11.50;9.75;8.00
66336;PMS1003;53139;45.576;5.304;2023-06-26T13:43:26;9.25;8.25;6.25
66336;PMS1003;53139;45.576;5.304;2023-06-26T13:47:41;9.00;8.25;7.25
66336;PMS1003;53139;45.576;5.304;2023-06-26T13:51:50;10.00;9.00;7.25
66336;PMS1003;53139;45.576;5.304;2023-06-26T13:55:29;7.75;7.75;5.00
66336;PMS1003;53139;45.576;5.304;2023-06-26T13:59:30;8.25;8.25;6.25
66336;PMS1003;53139;45.576;5.304;2023-06-26T14:03:31;8.75;8.75;8.00
66336;PMS1003;53139;45.576;5.304;2023-06-26T14:07:33;8.50;7.00;6.25
66336;PMS1003;53139;45.576;5.304;2023-06-26T14:11:26;12.00;12.00;10.00
66336;PMS1003;53139;45.576;5.304;2023-06-26T14:15:42;11.00;11.00;8.00
66336;PMS1003;53139;45.576;5.304;2023-06-26T14:19:53;9.75;9.25;7.75
66336;PMS1003;53139;45.576;5.304;2023-06-26T14:24:02;11.25;9.50;7.25
66336;PMS1003;53139;45.576;5.304;2023-06-26T14:27:46;8.75;7.75;7.00
66336;PMS1003;53139;45.576;5.304;2023-06-26T14:31:27;9.00;9.00;7.75
66336;PMS1003;53139;45.576;5.304;2023-06-26T14:35:23;8.25;8.25;6.75
66336;PMS1003;53139;45.576;5.304;2023-06-26T14:38:24;10.50;10.00;7.00
66336;PMS1003;53139;45.576;5.304;2023-06-26T14:41:38;9.50;8.00;6.25
66336;PMS1003;53139;45.576;5.304;2023-06-26T14:44:42;9.00;9.00;7.00
66336;PMS1003;53139;45.576;5.304;2023-06-26T15:11:51;9.25;9.00;6.50
66336;PMS1003;53139;45.576;5.304;2023-06-26T17:42:24;8.00;7.25;6.25
66336;PMS1003;53139;45.576;5.304;2023-06-26T17:45:24;9.75;8.00;6.25
66336;PMS1003;53139;45.576;5.304;2023-06-26T17:48:27;7.00;6.25;5.25
66336;PMS1003;53139;45.576;5.304;2023-06-26T17:51:27;8.00;8.00;6.50
66336;PMS1003;53139;45.576;5.304;2023-06-26T17:54:28;7.00;6.00;5.25
66336;PMS1003;53139;45.576;5.304;2023-06-26T17:57:28;8.50;7.75;5.25
66336;PMS1003;53139;45.576;5.304;2023-06-26T18:00:29;9.50;9.25;7.00
66336;PMS1003;53139;45.576;5.304;2023-06-26T18:03:29;7.75;7.75;6.00
66336;PMS1003;53139;45.576;5.304;2023-06-26T18:06:30;9.00;9.00;6.00
66336;PMS1003;53139;45.576;5.304;2023-06-26T18:09:30;7.00;7.00;5.50
66336;PMS1003;53139;45.576;5.304;2023-06-26T18:12:34;8.75;8.75;6.50
66336;PMS1003;53139;45.576;5.304;2023-06-26T18:15:38;5.75;5.75;5.00
66336;PMS1003;53139;45.576;5.304;2023-06-26T18:18:45;8.50;8.50;6.25
66336;PMS1003;53139;45.576;5.304;2023-06-26T18:21:46;10.50;9.50;7.75
66336;PMS1003;53139;45.576;5.304;2023-06-26T18:24:46;9.50;7.50;6.00
66336;PMS1003;53139;45.576;5.304;2023-06-26T18:27:47;7.75;7.75;6.25
66336;PMS1003;53139;45.576;5.304;2023-06-26T18:30:47;11.00;7.50;6.00
66336;PMS1003;53139;45.576;5.304;2023-06-26T18:33:48;9.50;8.25;6.00
66336;PMS1003;53139;45.576;5.304;2023-06-26T18:36:48;7.75;7.75;5.75
66336;PMS1003;53139;45.576;5.304;2023-06-26T18:39:49;9.75;7.25;6.00
66336;PMS1003;53139;45.576;5.304;2023-06-26T18:42:49;9.00;8.00;6.25
66336;PMS1003;53139;45.576;5.304;2023-06-26T18:45:50;9.00;9.00;6.00
66336;PMS1003;53139;45.576;5.304;2023-06-26T18:48:59;10.50;10.00;7.00
66336;PMS1003;53139;45.576;5.304;2023-06-26T18:52:00;11.75;9.00;7.00
66336;PMS1003;53139;45.576;5.304;2023-06-26T18:55:00;9.25;8.00;6.00
66336;PMS1003;53139;45.576;5.304;2023-06-26T18:58:16;15.00;14.25;11.25
66336;PMS1003;53139;45.576;5.304;2023-06-26T19:02:00;8.75;8.50;7.00
66336;PMS1003;53139;45.576;5.304;2023-06-26T19:06:16;12.25;10.25;8.00
66336;PMS1003;53139;45.576;5.304;2023-06-26T19:10:25;11.00;9.25;8.75
66336;PMS1003;53139;45.576;5.304;2023-06-26T19:18:41;11.50;9.00;7.00
66336;PMS1003;53139;45.576;5.304;2023-06-26T19:34:35;11.00;10.00;7.00
66336;PMS1003;53139;45.576;5.304;2023-06-26T22:59:28;9.75;6.50;4.00
66336;PMS1003;53139;45.576;5.304;2023-06-26T23:02:29;4.75;4.50;3.00
66336;PMS1003;53139;45.576;5.304;2023-06-26T23:05:30;3.50;3.00;2.00
66336;PMS1003;53139;45.576;5.304;2023-06-26T23:08:30;4.25;3.25;2.50
66336;PMS1003;53139;45.576;5.304;2023-06-26T23:11:31;7.00;6.75;5.00
66336;PMS1003;53139;45.576;5.304;2023-06-26T23:14:32;4.75;4.00;2.50
66336;PMS1003;53139;45.576;5.304;2023-06-26T23:17:33;6.00;6.00;4.00
66336;PMS1003;53139;45.576;5.304;2023-06-26T23:20:35;6.75;6.25;4.50
66336;PMS1003;53139;45.576;5.304;2023-06-26T23:23:35;4.25;4.25;3.00
66336;PMS1003;53139;45.576;5.304;2023-06-26T23:26:37;5.25;4.00;3.75
66336;PMS1003;53139;45.576;5.304;2023-06-26T23:29:38;6.50;4.00;3.00
66336;PMS1003;53139;45.576;5.304;2023-06-26T23:32:40;5.25;4.25;3.75
66336;PMS1003;53139;45.576;5.304;2023-06-26T23:35:40;6.00;5.25;4.00
66336;PMS1003;53139;45.576;5.304;2023-06-26T23:38:46;4.50;3.75;3.25
66336;PMS1003;53139;45.576;5.304;2023-06-26T23:41:48;8.25;4.50;3.50
66336;PMS1003;53139;45.576;5.304;2023-06-26T23:44:52;4.50;4.50;3.50
66336;PMS1003;53139;45.576;5.304;2023-06-26T23:47:53;5.00;4.00;3.00
66336;PMS1003;53139;45.576;5.304;2023-06-26T23:50:53;5.50;4.00;3.00
66336;PMS1003;53139;45.576;5.304;2023-06-26T23:53:54;7.00;5.50;4.00
66336;PMS1003;53139;45.576;5.304;2023-06-26T23:56:55;5.25;4.00;3.00
66336;PMS1003;53139;45.576;5.304;2023-06-26T23:59:56;5.00;5.00;4.00
